Time;durP1;ratioP1;P1;durP2;ratioP2;P2;SDS_P1;SDS_P2;PMS_P1;PMS_P2;Temp;Humidity;BMP_temperature;BMP_pressure;BME280_temperature;BME280_humidity;BME280_pressure;Samples;Min_cycle;Max_cycle;Signal;HPM_P1;HPM_P2
2023/07/23 00:01:14;;;;;;;9.15;5.13;;;;;;;23.91;100.00;98982.50;5027022;28;20216;-62
2023/07/23 00:03:42;;;;;;;8.60;4.88;;;;;;;23.79;100.00;98984.06;5026764;28;20240;-62
2023/07/23 00:06:09;;;;;;;9.00;4.65;;;;;;;23.86;100.00;99000.56;5026053;28;20204;-62
2023/07/23 00:08:36;;;;;;;7.43;4.53;;;;;;;23.79;100.00;98983.25;5025162;28;20211;-62
2023/07/23 00:11:03;;;;;;;8.82;5.00;;;;;;;23.70;100.00;98983.44;5025166;28;20200;-62
2023/07/23 00:13:30;;;;;;;10.85;5.30;;;;;;;23.71;100.00;98977.25;5026108;28;20208;-62
2023/07/23 00:15:57;;;;;;;9.23;4.93;;;;;;;23.70;100.00;98965.16;5026676;28;20596;-62
2023/07/23 00:18:23;;;;;;;7.57;5.00;;;;;;;23.71;100.00;98956.34;5026370;28;20200;-62
2023/07/23 00:20:52;;;;;;;6.68;4.25;;;;;;;23.75;100.00;98969.00;5026330;28;20214;-61
2023/07/23 00:23:18;;;;;;;11.10;5.35;;;;;;;23.58;100.00;98964.13;5026502;28;20200;-61
2023/07/23 00:25:45;;;;;;;10.80;5.97;;;;;;;23.59;100.00;98980.59;5026599;28;20203;-61
2023/07/23 00:28:12;;;;;;;9.68;5.43;;;;;;;23.51;100.00;98999.84;5026269;28;20647;-61
2023/07/23 00:30:39;;;;;;;9.68;5.47;;;;;;;23.44;100.00;99012.06;5026307;28;20208;-61
2023/07/23 00:33:06;;;;;;;10.85;5.38;;;;;;;23.34;100.00;99014.25;5026303;28;20216;-62
2023/07/23 00:35:33;;;;;;;11.18;5.45;;;;;;;23.40;100.00;99019.47;5026312;28;20466;-62
2023/07/23 00:38:01;;;;;;;12.82;5.85;;;;;;;23.36;100.00;99018.28;5026066;28;20692;-61
2023/07/23 00:40:28;;;;;;;8.98;5.32;;;;;;;23.34;100.00;99050.78;5026298;28;20197;-61
2023/07/23 00:42:55;;;;;;;10.57;5.50;;;;;;;23.21;100.00;99138.41;5026051;28;20239;-62
2023/07/23 00:45:24;;;;;;;9.40;5.18;;;;;;;23.24;100.00;99233.72;5025818;28;20326;-62
2023/07/23 00:47:50;;;;;;;10.88;5.97;;;;;;;23.15;100.00;99209.56;5026093;28;20204;-61
2023/07/23 00:50:17;;;;;;;8.88;5.13;;;;;;;23.00;100.00;99232.31;5026203;28;20220;-61
2023/07/23 00:52:44;;;;;;;5.63;4.13;;;;;;;22.98;100.00;99229.09;5026049;28;20204;-61
2023/07/23 00:55:13;;;;;;;7.70;4.07;;;;;;;22.95;100.00;99203.38;5025841;28;20204;-61
2023/07/23 00:57:40;;;;;;;6.17;3.80;;;;;;;22.87;100.00;99247.84;5025868;28;20208;-61
2023/07/23 01:00:09;;;;;;;13.13;4.18;;;;;;;22.69;100.00;99266.47;5026383;28;20200;-62
2023/07/23 01:02:36;;;;;;;7.27;4.00;;;;;;;22.56;100.00;99235.88;5025942;28;20303;-62
2023/07/23 01:05:04;;;;;;;6.63;3.47;;;;;;;22.44;100.00;99237.38;5025604;28;20238;-62
2023/07/23 01:07:33;;;;;;;6.90;3.70;;;;;;;22.33;100.00;99252.47;5025671;28;20270;-62
2023/07/23 01:10:03;;;;;;;6.25;3.83;;;;;;;22.15;100.00;99231.19;5025623;28;20204;-62
2023/07/23 01:12:32;;;;;;;7.50;3.83;;;;;;;22.08;100.00;99270.16;5025680;28;20200;-62
2023/07/23 01:14:59;;;;;;;6.40;3.70;;;;;;;21.97;100.00;99294.06;5025411;28;20209;-62
2023/07/23 01:17:26;;;;;;;5.07;3.73;;;;;;;21.88;100.00;99327.16;5025540;28;20599;-62
2023/07/23 01:20:04;;;;;;;7.97;3.77;;;;;;;21.70;100.00;99344.91;5025611;28;20222;-62
2023/07/23 01:22:33;;;;;;;9.33;3.60;;;;;;;21.60;100.00;99352.16;5025520;28;20765;-62
2023/07/23 01:25:00;;;;;;;7.10;3.47;;;;;;;21.50;100.00;99328.16;5025342;28;20724;-63
2023/07/23 01:27:27;;;;;;;7.63;3.13;;;;;;;21.41;100.00;99301.41;5025532;28;20212;-63
2023/07/23 01:29:53;;;;;;;17.47;3.53;;;;;;;21.38;100.00;99273.13;5025300;28;20205;-63
2023/07/23 01:32:20;;;;;;;5.97;3.30;;;;;;;21.22;100.00;99248.06;5025365;28;20200;-62
2023/07/23 01:34:48;;;;;;;7.43;3.37;;;;;;;21.17;100.00;99317.97;5025546;28;20201;-62
2023/07/23 01:37:15;;;;;;;6.00;3.50;;;;;;;21.16;100.00;99300.75;5025543;28;20204;-62
2023/07/23 01:39:45;;;;;;;8.93;3.57;;;;;;;21.18;100.00;99239.00;5025403;28;20233;-62
2023/07/23 01:42:13;;;;;;;7.03;3.80;;;;;;;21.21;100.00;99204.84;5025636;28;20206;-62
2023/07/23 01:44:40;;;;;;;7.00;3.10;;;;;;;21.27;100.00;99183.34;5025652;28;20236;-63
2023/07/23 01:47:07;;;;;;;5.53;2.87;;;;;;;21.38;100.00;99149.13;5025293;28;20508;-62
2023/07/23 01:49:35;;;;;;;6.77;3.20;;;;;;;21.46;100.00;99099.59;5025044;28;20207;-62
2023/07/23 01:52:02;;;;;;;6.13;3.00;;;;;;;21.47;100.00;99069.19;5025314;28;20210;-62
2023/07/23 01:54:29;;;;;;;10.33;4.20;;;;;;;21.46;100.00;99052.75;5024987;28;20208;-62
2023/07/23 01:56:58;;;;;;;6.70;3.07;;;;;;;21.40;100.00;99058.69;5024889;28;20201;-62
2023/07/23 01:59:24;;;;;;;8.23;3.50;;;;;;;21.35;100.00;99050.63;5024421;28;20203;-62
2023/07/23 02:01:51;;;;;;;8.37;3.63;;;;;;;21.28;100.00;99033.31;5025238;28;20214;-62
2023/07/23 02:04:18;;;;;;;5.90;2.80;;;;;;;21.15;100.00;99019.16;5025122;28;20247;-62
2023/07/23 02:06:45;;;;;;;4.10;2.60;;;;;;;21.09;100.00;99032.03;5025010;28;20605;-62
2023/07/23 02:09:12;;;;;;;6.20;3.30;;;;;;;21.10;100.00;99046.69;5024820;28;20388;-62
2023/07/23 02:11:39;;;;;;;5.93;3.27;;;;;;;21.09;100.00;99050.25;5024958;28;20599;-62
2023/07/23 02:14:08;;;;;;;6.20;3.57;;;;;;;21.12;100.00;99055.09;5024585;28;20215;-62
2023/07/23 02:16:35;;;;;;;5.90;3.10;;;;;;;21.20;100.00;99081.00;5024953;28;20203;-62
2023/07/23 02:19:02;;;;;;;8.53;3.47;;;;;;;21.29;100.00;99085.13;5024757;28;20586;-62
2023/07/23 02:21:29;;;;;;;7.27;2.93;;;;;;;21.29;100.00;99103.31;5024734;28;20795;-62
2023/07/23 02:23:56;;;;;;;7.07;2.90;;;;;;;21.33;100.00;99115.00;5024665;28;20209;-62
2023/07/23 02:26:22;;;;;;;7.83;2.90;;;;;;;21.33;100.00;99128.00;5024652;28;20211;-62
2023/07/23 02:28:49;;;;;;;5.70;3.23;;;;;;;21.36;100.00;99134.66;5024763;28;20218;-62
2023/07/23 02:31:17;;;;;;;6.57;2.87;;;;;;;21.33;100.00;99135.81;5024666;28;20582;-62
2023/07/23 02:33:44;;;;;;;7.87;3.60;;;;;;;21.36;100.00;99130.28;5024585;28;20208;-62
2023/07/23 02:36:11;;;;;;;6.67;3.40;;;;;;;21.36;100.00;99130.28;5024608;28;20203;-62
2023/07/23 02:38:38;;;;;;;6.60;2.83;;;;;;;21.36;100.00;99130.28;5024371;28;20706;-62
2023/07/23 02:41:05;;;;;;;4.10;2.77;;;;;;;21.37;100.00;99124.06;5024458;28;20224;-62
2023/07/23 02:43:32;;;;;;;8.33;3.00;;;;;;;21.33;100.00;99122.81;5024354;28;20205;-62
2023/07/23 02:45:58;;;;;;;6.60;2.93;;;;;;;21.32;100.00;99126.41;5024224;28;20272;-62
2023/07/23 02:48:27;;;;;;;6.00;2.63;;;;;;;21.32;100.00;99144.59;5024344;28;20588;-62
2023/07/23 02:50:53;;;;;;;4.13;2.90;;;;;;;21.28;100.00;99147.72;5024783;28;20323;-62
2023/07/23 02:53:21;;;;;;;4.53;2.97;;;;;;;21.24;100.00;99155.88;5024237;28;20210;-62
2023/07/23 02:55:47;;;;;;;8.77;3.37;;;;;;;21.21;100.00;99173.66;5024472;28;20234;-62
2023/07/23 02:58:14;;;;;;;4.90;2.83;;;;;;;21.18;100.00;99166.19;5024182;28;20213;-62
2023/07/23 03:00:44;;;;;;;5.37;2.90;;;;;;;21.15;100.00;99169.16;5024164;28;20218;-62
2023/07/23 03:03:11;;;;;;;4.17;2.70;;;;;;;21.14;100.00;99167.53;5024595;28;20215;-62
2023/07/23 03:05:42;;;;;;;6.07;3.07;;;;;;;21.10;100.00;99182.66;5024394;28;20234;-62
2023/07/23 03:08:09;;;;;;;6.40;2.70;;;;;;;21.06;100.00;99180.59;5024007;28;20281;-62
2023/07/23 03:10:36;;;;;;;6.00;3.57;;;;;;;21.03;100.00;99187.78;5024005;28;20644;-62
2023/07/23 03:13:03;;;;;;;5.70;3.10;;;;;;;20.98;100.00;99190.09;5027210;28;20598;-62
2023/07/23 03:15:30;;;;;;;8.73;3.20;;;;;;;20.99;100.00;99189.09;5027319;28;20205;-62
2023/07/23 03:17:57;;;;;;;7.03;3.27;;;;;;;20.98;100.00;99190.09;5027285;28;20196;-62
2023/07/23 03:20:24;;;;;;;5.73;3.43;;;;;;;20.95;100.00;99187.84;5027401;28;20197;-62
2023/07/23 03:22:52;;;;;;;5.50;3.30;;;;;;;20.88;100.00;99184.31;5027265;28;20526;-62
2023/07/23 03:25:19;;;;;;;6.90;3.50;;;;;;;20.87;100.00;99187.91;5027325;28;20244;-62
2023/07/23 03:27:46;;;;;;;6.90;2.93;;;;;;;20.77;100.00;99192.53;5027810;28;20200;-62
2023/07/23 03:30:13;;;;;;;4.67;3.20;;;;;;;20.79;100.00;99185.34;5025909;28;20205;-62
2023/07/23 03:32:41;;;;;;;6.43;3.27;;;;;;;20.83;100.00;99197.03;5025665;28;20588;-62
2023/07/23 03:35:08;;;;;;;8.90;3.50;;;;;;;20.82;100.00;99195.41;5026372;28;20220;-62
2023/07/23 03:37:35;;;;;;;5.93;3.20;;;;;;;20.77;100.00;99192.53;5026951;28;20232;-62
2023/07/23 03:40:03;;;;;;;7.17;3.17;;;;;;;20.77;100.00;99195.94;5027100;28;20203;-62
2023/07/23 03:42:30;;;;;;;5.67;3.57;;;;;;;20.76;100.00;99196.09;5027257;28;20205;-62
2023/07/23 03:44:56;;;;;;;6.93;3.30;;;;;;;20.71;100.00;99198.41;5027334;28;20228;-63
2023/07/23 03:47:23;;;;;;;7.60;3.70;;;;;;;20.78;100.00;99201.94;5027430;28;20202;-62
2023/07/23 03:49:50;;;;;;;7.33;3.50;;;;;;;20.82;100.00;99208.41;5026982;28;20610;-62
2023/07/23 03:52:17;;;;;;;6.23;3.40;;;;;;;20.85;100.00;99207.25;5026830;28;20640;-62
2023/07/23 03:54:44;;;;;;;5.37;3.00;;;;;;;20.85;100.00;99210.66;5026885;28;20595;-62
2023/07/23 03:57:12;;;;;;;7.07;3.30;;;;;;;20.86;100.00;99207.09;5026743;28;20213;-62
2023/07/23 03:59:41;;;;;;;6.77;3.00;;;;;;;20.89;100.00;99206.72;5026720;28;20203;-62
2023/07/23 04:02:08;;;;;;;6.70;3.60;;;;;;;20.92;100.00;99203.78;5026702;28;20214;-62
2023/07/23 04:04:36;;;;;;;6.83;3.40;;;;;;;20.92;100.00;99206.38;5026888;28;20201;-62
2023/07/23 04:07:04;;;;;;;6.93;3.53;;;;;;;21.01;100.00;99199.31;5026977;28;20222;-61
2023/07/23 04:09:31;;;;;;;4.43;3.20;;;;;;;21.07;100.00;99203.03;5026447;28;20206;-62
2023/07/23 04:11:58;;;;;;;4.73;2.90;;;;;;;21.07;100.00;99208.22;5026693;28;20214;-62
2023/07/23 04:14:26;;;;;;;6.40;2.97;;;;;;;21.14;100.00;99204.72;5026657;28;20207;-62
2023/07/23 04:16:54;;;;;;;7.60;3.53;;;;;;;21.22;100.00;99196.06;5026686;28;20202;-62
2023/07/23 04:19:21;;;;;;;7.57;3.03;;;;;;;21.29;100.00;99196.94;5026526;28;20207;-62
2023/07/23 04:21:48;;;;;;;5.57;3.50;;;;;;;21.28;100.00;99200.53;5026108;28;20223;-61
2023/07/23 04:24:15;;;;;;;6.43;3.50;;;;;;;21.37;100.00;99190.91;5026620;28;20205;-62
2023/07/23 04:26:42;;;;;;;4.33;3.20;;;;;;;21.42;100.00;99193.78;5026389;28;20768;-61
2023/07/23 04:29:09;;;;;;;6.13;3.30;;;;;;;21.46;100.00;99198.44;5026242;28;20199;-61
2023/07/23 04:31:38;;;;;;;6.03;3.47;;;;;;;21.45;100.00;99198.63;5026204;28;20201;-62
2023/07/23 04:34:04;;;;;;;4.97;3.23;;;;;;;21.47;100.00;99189.66;5026166;28;20231;-62
2023/07/23 04:36:31;;;;;;;8.37;4.33;;;;;;;21.44;100.00;99204.81;5026222;28;20210;-62
2023/07/23 04:39:00;;;;;;;8.27;3.97;;;;;;;21.38;100.00;99206.34;5026373;28;20210;-61
2023/07/23 04:41:27;;;;;;;8.97;4.07;;;;;;;21.33;100.00;99200.03;5026313;28;20206;-61
2023/07/23 04:43:54;;;;;;;7.87;4.10;;;;;;;21.41;100.00;99202.56;5026209;28;20205;-62
2023/07/23 04:46:21;;;;;;;10.50;4.50;;;;;;;21.44;100.00;99200.44;5026171;28;20230;-62
2023/07/23 04:48:49;;;;;;;7.30;4.30;;;;;;;21.43;100.00;99198.78;5026190;28;20238;-61
2023/07/23 04:51:16;;;;;;;6.47;3.80;;;;;;;21.46;100.00;99203.63;5026241;28;20203;-61
2023/07/23 04:53:43;;;;;;;8.00;4.00;;;;;;;21.58;100.00;99196.19;5026346;28;20295;-61
2023/07/23 04:56:10;;;;;;;7.60;4.40;;;;;;;21.59;100.00;99202.22;5026022;28;20200;-62
2023/07/23 04:58:36;;;;;;;7.20;3.83;;;;;;;21.66;100.00;99203.13;5025823;28;20208;-62
2023/07/23 05:01:09;;;;;;;7.77;4.27;;;;;;;21.81;100.00;99206.53;5025857;28;20256;-62
2023/07/23 05:03:36;;;;;;;7.13;4.30;;;;;;;21.88;100.00;99206.63;5025749;28;20210;-61
2023/07/23 05:06:06;;;;;;;6.00;3.80;;;;;;;21.99;100.00;99210.53;5025853;28;20268;-61
2023/07/23 05:08:34;;;;;;;6.73;3.97;;;;;;;22.05;100.00;99204.59;5025605;28;20671;-61
2023/07/23 05:11:01;;;;;;;7.03;3.53;;;;;;;22.03;100.00;99204.81;5025679;28;20665;-61
2023/07/23 05:13:29;;;;;;;5.67;3.40;;;;;;;22.15;100.00;99192.13;5025866;28;20211;-61
2023/07/23 05:15:55;;;;;;;4.67;3.23;;;;;;;22.23;100.00;99194.66;5025690;28;20204;-61
2023/07/23 05:18:23;;;;;;;5.20;3.37;;;;;;;22.37;100.00;99195.63;5025395;28;20207;-61
2023/07/23 05:20:50;;;;;;;4.87;3.20;;;;;;;22.27;100.00;99193.28;5025662;28;20268;-61
2023/07/23 05:23:18;;;;;;;5.40;3.60;;;;;;;22.32;100.00;99187.53;5025497;28;20194;-61
2023/07/23 05:25:45;;;;;;;7.25;3.95;;;;;;;22.43;100.00;99188.84;5025373;28;20236;-61
2023/07/23 05:28:12;;;;;;;5.60;3.50;;;;;;;22.44;100.00;99198.28;5025546;28;20673;-61
2023/07/23 05:30:39;;;;;;;5.32;3.15;;;;;;;22.45;100.00;99202.50;5025388;28;20608;-61
2023/07/23 05:33:06;;;;;;;9.55;4.15;;;;;;;22.47;100.00;99200.50;5025369;28;20208;-61
2023/07/23 05:35:33;;;;;;;6.15;3.55;;;;;;;22.61;100.00;99202.25;5024538;28;20207;-61
2023/07/23 05:38:00;;;;;;;6.50;4.18;;;;;;;22.57;100.00;99211.44;5025435;28;20208;-61
2023/07/23 05:40:30;;;;;;;6.03;3.63;;;;;;;22.61;100.00;99212.69;5024858;28;20200;-61
2023/07/23 05:42:57;;;;;;;7.25;3.72;;;;;;;22.62;100.00;99210.88;5025355;28;20581;-61
2023/07/23 05:45:24;;;;;;;5.60;3.60;;;;;;;22.68;100.00;99217.97;5025028;28;20747;-61
2023/07/23 05:47:50;;;;;;;6.35;3.10;;;;;;;22.59;100.00;99217.28;5025172;28;20212;-61
2023/07/23 05:50:17;;;;;;;4.70;3.45;;;;;;;22.76;100.00;99215.22;5025147;28;20211;-61
2023/07/23 05:52:44;;;;;;;4.95;3.40;;;;;;;22.86;100.00;99210.50;5025074;28;20204;-61
2023/07/23 05:55:11;;;;;;;4.93;2.80;;;;;;;22.86;100.00;99220.94;5025022;28;20707;-61
2023/07/23 05:57:39;;;;;;;7.82;4.05;;;;;;;22.97;100.00;99227.47;5025142;28;20200;-61
2023/07/23 06:00:07;;;;;;;4.28;3.17;;;;;;;23.11;100.00;99212.75;5024884;28;20215;-61
2023/07/23 06:02:34;;;;;;;6.03;3.30;;;;;;;23.30;100.00;99216.50;5025104;28;20212;-61
2023/07/23 06:05:03;;;;;;;5.60;3.25;;;;;;;23.37;100.00;99223.38;5025063;28;20205;-61
2023/07/23 06:07:30;;;;;;;4.82;3.15;;;;;;;23.46;100.00;99224.03;5025168;28;20472;-61
2023/07/23 06:09:56;;;;;;;6.63;3.60;;;;;;;23.52;100.00;99225.88;5024753;28;20200;-61
2023/07/23 06:12:23;;;;;;;3.95;2.97;;;;;;;23.71;100.00;99229.66;5024820;28;20207;-61
2023/07/23 06:14:51;;;;;;;4.82;3.28;;;;;;;23.88;100.00;99225.75;5024706;28;20208;-61
2023/07/23 06:17:18;;;;;;;6.03;3.80;;;;;;;24.01;100.00;99230.22;5024723;28;20580;-61
2023/07/23 06:19:45;;;;;;;6.28;3.17;;;;;;;24.23;100.00;99227.47;5024701;28;20208;-61
2023/07/23 06:22:13;;;;;;;4.68;3.03;;;;;;;24.29;100.00;99226.69;5024962;28;20214;-61
2023/07/23 06:24:39;;;;;;;6.55;3.03;;;;;;;24.39;100.00;99234.97;5024981;28;20196;-61
2023/07/23 06:27:07;;;;;;;6.13;3.40;;;;;;;24.53;100.00;99234.03;5024670;28;20765;-61
2023/07/23 06:29:34;;;;;;;8.02;3.15;;;;;;;24.55;100.00;99241.66;5024905;28;20214;-61
2023/07/23 06:32:02;;;;;;;4.57;3.15;;;;;;;24.67;100.00;99249.72;5024947;28;20208;-61
2023/07/23 06:34:29;;;;;;;4.15;3.17;;;;;;;24.75;100.00;99246.94;5024970;28;20712;-61
2023/07/23 06:36:56;;;;;;;4.55;2.88;;;;;;;24.92;100.00;99245.56;5024475;28;20220;-61
2023/07/23 06:39:22;;;;;;;5.22;3.30;;;;;;;25.01;100.00;99244.34;5024672;28;20200;-61
2023/07/23 06:41:49;;;;;;;5.93;3.58;;;;;;;25.22;100.00;99242.56;5024710;28;20205;-61
2023/07/23 06:44:16;;;;;;;5.15;3.05;;;;;;;25.19;100.00;99242.97;5024391;28;20665;-61
2023/07/23 06:46:43;;;;;;;3.83;2.72;;;;;;;25.29;100.00;99244.19;5027686;28;20240;-61
2023/07/23 06:49:13;;;;;;;4.95;3.15;;;;;;;25.44;100.00;99246.59;5028009;28;20212;-61
2023/07/23 06:51:40;;;;;;;4.68;3.10;;;;;;;25.61;100.00;99256.66;5028767;28;20211;-61
2023/07/23 06:54:06;;;;;;;4.57;3.08;;;;;;;25.41;100.00;99241.75;5027823;28;20200;-61
2023/07/23 06:56:34;;;;;;;3.63;2.60;;;;;;;25.57;100.00;99247.56;5027568;28;20214;-61
2023/07/23 06:59:03;;;;;;;5.50;3.20;;;;;;;25.62;100.00;99253.00;5034731;28;20333;-61
2023/07/23 07:01:30;;;;;;;6.30;3.20;;;;;;;25.90;100.00;99250.97;5046670;28;20221;-65
2023/07/23 07:03:58;;;;;;;3.70;2.90;;;;;;;26.10;100.00;99250.09;5042605;28;20209;-64
2023/07/23 07:06:26;;;;;;;3.72;2.80;;;;;;;26.34;100.00;99254.63;5027735;28;20228;-66
2023/07/23 07:08:53;;;;;;;6.07;3.33;;;;;;;26.32;100.00;99254.00;5027608;28;20192;-63
2023/07/23 07:11:20;;;;;;;4.32;2.75;;;;;;;26.44;100.00;99254.16;5027785;28;20204;-65
2023/07/23 07:13:47;;;;;;;3.40;2.30;;;;;;;26.72;100.00;99260.91;5027473;28;20200;-67
2023/07/23 07:16:16;;;;;;;7.45;3.63;;;;;;;27.00;100.00;99266.56;5027548;28;20204;-67
2023/07/23 07:18:43;;;;;;;6.53;2.90;;;;;;;27.13;100.00;99278.78;5027725;28;20296;-63
2023/07/23 07:21:09;;;;;;;4.65;3.20;;;;;;;27.20;98.09;99270.88;5027286;28;20663;-66
2023/07/23 07:23:38;;;;;;;3.75;2.67;;;;;;;27.35;97.63;99274.00;5027552;28;20437;-64
2023/07/23 07:26:05;;;;;;;3.88;2.97;;;;;;;27.72;100.00;99274.84;5027282;28;20239;-66
2023/07/23 07:28:33;;;;;;;8.90;3.08;;;;;;;27.63;94.58;99276.13;5027260;28;20200;-65
2023/07/23 07:31:03;;;;;;;5.35;3.25;;;;;;;27.75;98.34;99277.03;5027251;28;20291;-64
2023/07/23 07:33:30;;;;;;;5.20;3.15;;;;;;;27.80;93.63;99283.50;5027175;28;20204;-64
2023/07/23 07:35:58;;;;;;;5.22;3.10;;;;;;;27.69;91.51;99275.28;5027246;28;20596;-64
2023/07/23 07:38:25;;;;;;;4.45;2.90;;;;;;;27.73;91.08;99278.28;5027308;28;20205;-64
2023/07/23 07:40:53;;;;;;;3.78;2.53;;;;;;;28.06;93.01;99280.56;5027121;28;20230;-61
2023/07/23 07:43:20;;;;;;;3.40;2.75;;;;;;;28.25;93.50;99272.69;5027167;28;20210;-67
2023/07/23 07:45:52;;;;;;;4.47;2.88;;;;;;;28.44;90.46;99279.53;5026912;28;20295;-66
2023/07/23 07:48:20;;;;;;;5.57;2.70;;;;;;;28.52;87.83;99278.44;5027031;28;20197;-64
2023/07/23 07:50:49;;;;;;;3.55;2.65;;;;;;;28.51;86.63;99277.63;5027033;28;20200;-64
2023/07/23 07:53:16;;;;;;;3.80;2.72;;;;;;;28.46;83.37;99282.75;5026968;28;20265;-68
2023/07/23 07:55:44;;;;;;;6.80;2.83;;;;;;;28.69;88.86;99278.59;5027399;28;20205;-68
2023/07/23 07:58:14;;;;;;;3.28;2.55;;;;;;;28.76;85.22;99274.03;5026134;28;20287;-66
2023/07/23 08:00:42;;;;;;;3.97;2.67;;;;;;;28.80;81.89;99280.47;5026709;28;20216;-66
2023/07/23 08:03:09;;;;;;;4.20;3.05;;;;;;;28.85;82.70;99278.75;5027098;28;20196;-66
2023/07/23 08:05:37;;;;;;;5.47;2.80;;;;;;;29.10;81.53;99281.22;5026693;28;20216;-67
2023/07/23 08:08:06;;;;;;;4.35;3.00;;;;;;;29.10;80.44;99286.50;5026972;28;20232;-66
2023/07/23 08:10:35;;;;;;;4.15;3.33;;;;;;;29.39;82.76;99277.94;5026480;28;20207;-63
2023/07/23 08:13:02;;;;;;;6.75;3.45;;;;;;;29.40;79.54;99293.50;5026450;28;20201;-63
2023/07/23 08:15:32;;;;;;;3.70;2.80;;;;;;;29.38;78.03;99300.84;5026470;28;20304;-66
2023/07/23 08:18:00;;;;;;;5.60;3.40;;;;;;;29.02;80.22;99288.63;5026482;28;20204;-66
2023/07/23 08:20:28;;;;;;;6.22;3.17;;;;;;;29.13;78.31;99300.25;5026531;28;20204;-67
2023/07/23 08:22:56;;;;;;;3.70;3.00;;;;;;;29.41;79.42;99300.41;5026677;28;20201;-67
2023/07/23 08:25:23;;;;;;;5.63;3.65;;;;;;;29.55;79.38;99293.88;5026296;28;20712;-67
2023/07/23 08:27:58;;;;;;;4.47;3.63;;;;;;;29.64;80.16;99301.44;5026351;28;20232;-67
2023/07/23 08:30:26;;;;;;;5.68;4.00;;;;;;;29.89;76.92;99291.44;5026438;28;20211;-66
2023/07/23 08:32:55;;;;;;;6.28;3.75;;;;;;;30.05;76.30;99291.75;5026334;28;20580;-68
2023/07/23 08:35:22;;;;;;;4.90;3.22;;;;;;;29.92;77.89;99292.81;5026253;28;20200;-67
2023/07/23 08:37:50;;;;;;;4.15;3.10;;;;;;;29.80;76.47;99306.03;5026335;28;20204;-67
2023/07/23 08:40:20;;;;;;;4.28;2.85;;;;;;;29.81;79.84;99291.78;5026210;28;20587;-67
2023/07/23 08:43:23;;;;;;;4.80;3.03;;;;;;;29.80;75.09;99289.41;5026133;28;20200;-67
2023/07/23 08:46:19;;;;;;;4.65;2.90;;;;;;;29.90;76.55;99298.31;5026472;28;20196;-67
2023/07/23 08:49:03;;;;;;;3.97;2.88;;;;;;;29.91;75.29;99299.94;5025541;28;20204;-66
2023/07/23 08:51:33;;;;;;;3.95;3.17;;;;;;;30.14;78.05;99306.19;5026108;28;20242;-67
2023/07/23 08:54:02;;;;;;;4.22;3.13;;;;;;;30.47;78.86;99310.81;5025926;28;20204;-67
2023/07/23 08:56:28;;;;;;;4.80;2.83;;;;;;;30.35;72.94;99308.22;5025857;28;20215;-67
2023/07/23 08:58:56;;;;;;;5.55;3.25;;;;;;;30.23;69.87;99316.16;5025834;28;20201;-66
2023/07/23 09:01:24;;;;;;;4.68;3.35;;;;;;;30.22;72.30;99319.03;5026095;28;20218;-67
2023/07/23 09:03:51;;;;;;;3.33;2.80;;;;;;;30.61;74.29;99311.34;5026111;28;20205;-67
2023/07/23 09:06:20;;;;;;;5.45;3.28;;;;;;;30.77;70.45;99309.75;5025078;28;20196;-66
2023/07/23 09:08:47;;;;;;;4.05;3.20;;;;;;;30.89;70.26;99314.00;5032192;27;20200;-67
2023/07/23 09:11:14;;;;;;;7.38;4.00;;;;;;;31.28;74.05;99306.16;5106429;27;20210;-66
2023/07/23 09:13:41;;;;;;;6.68;4.30;;;;;;;31.52;73.13;99312.09;5150362;27;20195;-66
2023/07/23 09:16:07;;;;;;;7.05;4.65;;;;;;;31.68;71.31;99314.94;5150083;27;20727;-67
2023/07/23 09:18:39;;;;;;;8.20;5.50;;;;;;;31.54;65.68;99319.78;5150144;27;20210;-66
2023/07/23 09:21:06;;;;;;;9.13;5.22;;;;;;;31.47;71.72;99316.50;5150238;27;20230;-66
2023/07/23 09:23:35;;;;;;;4.82;3.60;;;;;;;31.56;69.26;99312.38;5150166;27;20199;-68
2023/07/23 09:26:02;;;;;;;24.20;8.70;;;;;;;31.67;77.01;99308.84;5150013;27;20195;-66
2023/07/23 09:28:28;;;;;;;5.72;5.13;;;;;;;31.69;63.09;99317.34;5149859;27;20224;-66
2023/07/23 09:30:56;;;;;;;4.68;3.13;;;;;;;31.82;68.47;99315.38;5150009;27;20211;-67
2023/07/23 09:33:30;;;;;;;4.55;3.35;;;;;;;32.05;66.99;99320.47;5149748;27;20207;-68
2023/07/23 09:35:59;;;;;;;5.35;3.38;;;;;;;32.12;61.42;99318.47;5064306;27;20228;-67
2023/07/23 09:38:28;;;;;;;5.82;3.50;;;;;;;32.00;62.74;99323.09;5025546;28;20219;-67
2023/07/23 09:40:57;;;;;;;4.15;3.22;;;;;;;32.23;66.93;99317.53;5025554;28;20570;-67
2023/07/23 09:43:24;;;;;;;4.10;3.10;;;;;;;32.45;63.10;99311.44;5025161;28;20814;-67
2023/07/23 09:45:51;;;;;;;3.78;3.05;;;;;;;32.19;59.02;99316.41;5025411;28;20204;-66
2023/07/23 09:48:19;;;;;;;4.75;3.38;;;;;;;32.28;59.69;99319.44;5025321;28;20231;-68
2023/07/23 09:50:46;;;;;;;3.35;3.00;;;;;;;32.21;59.14;99311.69;5025175;28;20595;-67
2023/07/23 09:53:15;;;;;;;5.22;3.50;;;;;;;32.28;64.71;99310.69;5024617;28;20634;-66
2023/07/23 09:55:43;;;;;;;3.80;3.00;;;;;;;32.39;60.67;99315.06;5024198;28;20200;-67
2023/07/23 09:58:12;;;;;;;3.95;3.17;;;;;;;32.26;58.11;99305.66;5023881;28;20588;-67
2023/07/23 10:00:42;;;;;;;5.70;3.97;;;;;;;32.44;62.26;99309.81;5024021;28;20444;-67
2023/07/23 10:03:10;;;;;;;8.85;5.68;;;;;;;32.84;69.31;99305.97;5025038;28;20196;-67
2023/07/23 10:05:37;;;;;;;26.58;12.48;;;;;;;32.80;56.29;99320.78;5025067;28;20462;-67
2023/07/23 10:08:05;;;;;;;66.50;29.77;;;;;;;32.48;54.85;99316.25;5025054;28;20255;-67
2023/07/23 10:10:32;;;;;;;39.55;16.58;;;;;;;32.55;59.84;99311.56;5024934;28;20211;-66
2023/07/23 10:12:59;;;;;;;128.23;48.22;;;;;;;32.67;58.08;99314.84;5024901;28;20207;-67
2023/07/23 10:15:31;;;;;;;42.50;17.90;;;;;;;32.63;56.21;99316.38;5024907;28;20207;-66
2023/07/23 10:18:01;;;;;;;34.35;14.15;;;;;;;32.45;59.09;99306.94;5024116;28;20195;-66
2023/07/23 10:20:30;;;;;;;31.55;12.55;;;;;;;32.63;60.00;99305.00;5024889;28;20655;-66
2023/07/23 10:22:57;;;;;;;22.88;12.73;;;;;;;32.62;52.66;99321.94;5028354;28;20212;-66
2023/07/23 10:25:31;;;;;;;7.85;5.20;;;;;;;32.81;60.05;99317.09;5028507;28;20218;-63
2023/07/23 10:28:00;;;;;;;6.00;4.30;;;;;;;32.83;52.85;99315.00;5027589;28;20240;-66
2023/07/23 10:30:29;;;;;;;8.13;4.55;;;;;;;32.84;58.25;99314.75;5028378;28;20211;-67
2023/07/23 10:33:31;;;;;;;9.20;4.57;;;;;;;32.63;55.77;99316.38;5027988;28;20207;-64
2023/07/23 10:35:59;;;;;;;6.20;4.68;;;;;;;32.29;58.58;99314.94;5028515;28;20208;-62
2023/07/23 10:38:28;;;;;;;6.85;5.10;;;;;;;32.30;56.61;99316.53;5028370;28;20208;-66
2023/07/23 10:40:55;;;;;;;6.32;4.90;;;;;;;32.59;56.95;99315.28;5028127;28;20200;-63
2023/07/23 10:43:23;;;;;;;6.57;4.75;;;;;;;32.92;56.60;99316.13;5028279;28;20200;-66
2023/07/23 10:46:02;;;;;;;8.60;4.63;;;;;;;32.94;57.43;99324.63;5028231;28;20210;-68
2023/07/23 10:48:38;;;;;;;6.50;4.78;;;;;;;32.91;55.73;99319.84;5027944;28;20724;-66
2023/07/23 10:51:08;;;;;;;6.05;4.35;;;;;;;32.91;53.08;99317.19;5027953;28;20664;-65
2023/07/23 10:53:39;;;;;;;8.05;5.20;;;;;;;32.84;54.01;99316.56;5027928;28;20264;-65
2023/07/23 10:56:21;;;;;;;8.27;5.40;;;;;;;32.61;54.76;99323.81;5028012;28;20587;-66
2023/07/23 10:58:49;;;;;;;7.47;5.20;;;;;;;32.86;58.28;99309.97;5027785;28;20212;-64
2023/07/23 11:01:22;;;;;;;7.60;4.85;;;;;;;33.18;58.46;99313.72;5027957;28;20208;-64
2023/07/23 11:03:50;;;;;;;7.07;4.88;;;;;;;33.24;59.18;99315.34;5028426;28;20288;-63
2023/07/23 11:06:30;;;;;;;7.22;4.97;;;;;;;33.28;54.05;99316.44;5027715;28;20231;-64
2023/07/23 11:08:59;;;;;;;7.85;5.45;;;;;;;33.12;53.14;99308.38;5027055;28;20232;-66
2023/07/23 11:11:34;;;;;;;6.90;5.43;;;;;;;33.23;53.51;99303.16;5040982;28;20675;-64
2023/07/23 11:14:03;;;;;;;5.63;4.18;;;;;;;32.89;51.85;99298.09;5047556;28;20195;-64
2023/07/23 11:16:35;;;;;;;6.82;4.90;;;;;;;32.75;54.29;99287.09;5047247;28;20204;-64
2023/07/23 11:19:07;;;;;;;5.13;4.13;;;;;;;32.95;54.05;99280.38;5049291;28;20217;-61
2023/07/23 11:21:35;;;;;;;6.63;4.47;;;;;;;33.08;55.37;99280.00;5047579;27;20256;-61
2023/07/23 11:24:02;;;;;;;5.38;3.90;;;;;;;33.34;59.03;99280.97;5046093;28;20203;-62
2023/07/23 11:26:29;;;;;;;7.25;4.38;;;;;;;33.03;51.42;99288.69;5047295;28;20272;-62
2023/07/23 11:28:56;;;;;;;5.65;4.40;;;;;;;32.95;54.14;99283.84;5047209;28;20241;-62
2023/07/23 11:31:24;;;;;;;5.85;4.20;;;;;;;32.92;53.42;99284.34;5047106;28;20203;-62